sensor_id;sensor_type;location;lat;lon;timestamp;P1;durP1;ratioP1;P2;durP2;ratioP2
77417;SDS011;66490;51.484;0.026;2024-02-23T00:00:07;6.20;;;1.10;;
77417;SDS011;66490;51.484;0.026;2024-02-23T00:02:54;6.97;;;1.20;;
77417;SDS011;66490;51.484;0.026;2024-02-23T00:05:43;9.82;;;1.55;;
77417;SDS011;66490;51.484;0.026;2024-02-23T00:08:33;8.90;;;1.67;;
77417;SDS011;66490;51.484;0.026;2024-02-23T00:11:25;10.00;;;1.33;;
77417;SDS011;66490;51.484;0.026;2024-02-23T00:14:12;5.97;;;1.65;;
77417;SDS011;66490;51.484;0.026;2024-02-23T00:16:56;5.88;;;1.15;;
77417;SDS011;66490;51.484;0.026;2024-02-23T00:19:41;11.30;;;1.60;;
77417;SDS011;66490;51.484;0.026;2024-02-23T00:22:35;7.40;;;1.27;;
77417;SDS011;66490;51.484;0.026;2024-02-23T00:25:21;8.20;;;1.10;;
77417;SDS011;66490;51.484;0.026;2024-02-23T00:28:06;5.20;;;0.90;;
77417;SDS011;66490;51.484;0.026;2024-02-23T00:30:53;8.93;;;1.33;;
77417;SDS011;66490;51.484;0.026;2024-02-23T00:33:40;6.55;;;0.90;;
77417;SDS011;66490;51.484;0.026;2024-02-23T00:36:26;4.78;;;1.10;;
77417;SDS011;66490;51.484;0.026;2024-02-23T00:39:15;7.07;;;0.97;;
77417;SDS011;66490;51.484;0.026;2024-02-23T00:42:03;9.88;;;1.38;;
77417;SDS011;66490;51.484;0.026;2024-02-23T00:44:50;10.13;;;1.40;;
77417;SDS011;66490;51.484;0.026;2024-02-23T00:47:40;6.30;;;1.20;;
77417;SDS011;66490;51.484;0.026;2024-02-23T00:50:27;8.55;;;1.45;;
77417;SDS011;66490;51.484;0.026;2024-02-23T00:53:11;8.07;;;1.07;;
77417;SDS011;66490;51.484;0.026;2024-02-23T00:55:55;7.55;;;0.80;;
77417;SDS011;66490;51.484;0.026;2024-02-23T00:58:39;9.07;;;1.20;;
77417;SDS011;66490;51.484;0.026;2024-02-23T01:01:26;8.02;;;1.08;;
77417;SDS011;66490;51.484;0.026;2024-02-23T01:04:11;9.90;;;1.80;;
77417;SDS011;66490;51.484;0.026;2024-02-23T01:06:56;3.97;;;1.10;;
77417;SDS011;66490;51.484;0.026;2024-02-23T01:09:39;8.77;;;1.13;;
77417;SDS011;66490;51.484;0.026;2024-02-23T01:12:31;5.57;;;1.60;;
77417;SDS011;66490;51.484;0.026;2024-02-23T01:15:15;8.80;;;1.05;;
77417;SDS011;66490;51.484;0.026;2024-02-23T01:17:59;10.35;;;1.55;;
77417;SDS011;66490;51.484;0.026;2024-02-23T01:20:43;8.10;;;0.97;;
77417;SDS011;66490;51.484;0.026;2024-02-23T01:23:27;9.32;;;1.15;;
77417;SDS011;66490;51.484;0.026;2024-02-23T01:26:11;8.30;;;1.15;;
77417;SDS011;66490;51.484;0.026;2024-02-23T01:28:57;7.47;;;1.08;;
77417;SDS011;66490;51.484;0.026;2024-02-23T01:31:41;16.45;;;2.00;;
77417;SDS011;66490;51.484;0.026;2024-02-23T01:34:26;10.63;;;0.93;;
77417;SDS011;66490;51.484;0.026;2024-02-23T01:37:10;14.18;;;1.80;;
77417;SDS011;66490;51.484;0.026;2024-02-23T01:39:56;16.77;;;1.52;;
77417;SDS011;66490;51.484;0.026;2024-02-23T01:42:40;11.65;;;1.70;;
77417;SDS011;66490;51.484;0.026;2024-02-23T02:05:36;9.60;;;2.13;;
77417;SDS011;66490;51.484;0.026;2024-02-23T02:08:23;12.32;;;1.17;;
77417;SDS011;66490;51.484;0.026;2024-02-23T02:11:08;14.15;;;1.70;;
77417;SDS011;66490;51.484;0.026;2024-02-23T02:13:51;4.70;;;0.93;;
77417;SDS011;66490;51.484;0.026;2024-02-23T02:16:36;6.05;;;1.60;;
77417;SDS011;66490;51.484;0.026;2024-02-23T02:19:20;11.23;;;1.07;;
77417;SDS011;66490;51.484;0.026;2024-02-23T02:22:04;7.10;;;1.33;;
77417;SDS011;66490;51.484;0.026;2024-02-23T02:24:48;11.15;;;1.38;;
77417;SDS011;66490;51.484;0.026;2024-02-23T02:27:32;17.33;;;1.30;;
77417;SDS011;66490;51.484;0.026;2024-02-23T02:30:16;5.00;;;1.63;;
77417;SDS011;66490;51.484;0.026;2024-02-23T02:33:00;5.67;;;1.53;;
77417;SDS011;66490;51.484;0.026;2024-02-23T02:35:44;8.40;;;1.17;;
77417;SDS011;66490;51.484;0.026;2024-02-23T02:38:28;7.75;;;1.33;;
77417;SDS011;66490;51.484;0.026;2024-02-23T02:41:12;9.20;;;1.25;;
77417;SDS011;66490;51.484;0.026;2024-02-23T02:43:57;7.43;;;1.35;;
77417;SDS011;66490;51.484;0.026;2024-02-23T02:46:41;8.73;;;1.50;;
77417;SDS011;66490;51.484;0.026;2024-02-23T02:49:26;20.13;;;1.75;;
77417;SDS011;66490;51.484;0.026;2024-02-23T02:52:24;10.43;;;1.48;;
77417;SDS011;66490;51.484;0.026;2024-02-23T02:58:14;10.48;;;1.55;;
77417;SDS011;66490;51.484;0.026;2024-02-23T03:01:06;9.30;;;0.83;;
77417;SDS011;66490;51.484;0.026;2024-02-23T03:03:51;11.07;;;1.77;;
77417;SDS011;66490;51.484;0.026;2024-02-23T03:06:35;8.18;;;1.27;;
77417;SDS011;66490;51.484;0.026;2024-02-23T03:09:19;11.55;;;1.80;;
77417;SDS011;66490;51.484;0.026;2024-02-23T03:12:06;10.93;;;1.65;;
77417;SDS011;66490;51.484;0.026;2024-02-23T03:14:53;10.57;;;1.47;;
77417;SDS011;66490;51.484;0.026;2024-02-23T03:17:37;8.10;;;0.90;;
77417;SDS011;66490;51.484;0.026;2024-02-23T03:20:21;3.63;;;0.50;;
77417;SDS011;66490;51.484;0.026;2024-02-23T03:23:05;8.30;;;1.20;;
77417;SDS011;66490;51.484;0.026;2024-02-23T03:25:48;9.25;;;1.70;;
77417;SDS011;66490;51.484;0.026;2024-02-23T03:28:32;9.27;;;0.90;;
77417;SDS011;66490;51.484;0.026;2024-02-23T03:31:17;6.93;;;0.85;;
77417;SDS011;66490;51.484;0.026;2024-02-23T03:34:02;5.57;;;0.75;;
77417;SDS011;66490;51.484;0.026;2024-02-23T03:36:46;4.68;;;1.15;;
77417;SDS011;66490;51.484;0.026;2024-02-23T03:39:30;7.63;;;1.00;;
77417;SDS011;66490;51.484;0.026;2024-02-23T03:42:15;6.60;;;0.70;;
77417;SDS011;66490;51.484;0.026;2024-02-23T03:44:59;5.35;;;0.80;;
77417;SDS011;66490;51.484;0.026;2024-02-23T03:47:44;8.05;;;0.95;;
77417;SDS011;66490;51.484;0.026;2024-02-23T03:50:28;4.72;;;1.05;;
77417;SDS011;66490;51.484;0.026;2024-02-23T03:53:13;3.10;;;1.10;;
77417;SDS011;66490;51.484;0.026;2024-02-23T03:55:57;8.60;;;0.50;;
77417;SDS011;66490;51.484;0.026;2024-02-23T03:58:41;6.70;;;1.02;;
77417;SDS011;66490;51.484;0.026;2024-02-23T04:01:25;6.95;;;1.40;;
77417;SDS011;66490;51.484;0.026;2024-02-23T04:04:09;8.25;;;1.17;;
77417;SDS011;66490;51.484;0.026;2024-02-23T04:06:53;9.77;;;1.30;;
77417;SDS011;66490;51.484;0.026;2024-02-23T04:09:37;8.20;;;0.80;;
77417;SDS011;66490;51.484;0.026;2024-02-23T04:12:21;5.38;;;0.82;;
77417;SDS011;66490;51.484;0.026;2024-02-23T04:15:05;5.38;;;1.20;;
77417;SDS011;66490;51.484;0.026;2024-02-23T04:17:50;6.25;;;0.88;;
77417;SDS011;66490;51.484;0.026;2024-02-23T04:20:34;6.45;;;1.58;;
77417;SDS011;66490;51.484;0.026;2024-02-23T04:23:21;4.47;;;0.80;;
77417;SDS011;66490;51.484;0.026;2024-02-23T04:26:05;7.00;;;1.00;;
77417;SDS011;66490;51.484;0.026;2024-02-23T04:28:48;5.07;;;0.85;;
77417;SDS011;66490;51.484;0.026;2024-02-23T04:31:32;5.80;;;0.60;;
77417;SDS011;66490;51.484;0.026;2024-02-23T04:34:16;6.88;;;1.33;;
77417;SDS011;66490;51.484;0.026;2024-02-23T04:37:00;8.10;;;0.90;;
77417;SDS011;66490;51.484;0.026;2024-02-23T04:39:47;10.52;;;1.20;;
77417;SDS011;66490;51.484;0.026;2024-02-23T04:42:31;11.57;;;0.98;;
77417;SDS011;66490;51.484;0.026;2024-02-23T04:45:15;6.03;;;1.35;;
77417;SDS011;66490;51.484;0.026;2024-02-23T04:47:59;6.88;;;1.20;;
77417;SDS011;66490;51.484;0.026;2024-02-23T04:50:42;7.17;;;0.90;;
77417;SDS011;66490;51.484;0.026;2024-02-23T04:53:27;3.00;;;0.60;;
77417;SDS011;66490;51.484;0.026;2024-02-23T04:56:11;5.50;;;1.02;;
77417;SDS011;66490;51.484;0.026;2024-02-23T04:58:55;5.38;;;0.93;;
77417;SDS011;66490;51.484;0.026;2024-02-23T05:01:39;4.90;;;1.10;;
77417;SDS011;66490;51.484;0.026;2024-02-23T05:04:23;4.60;;;0.57;;
77417;SDS011;66490;51.484;0.026;2024-02-23T05:07:07;8.80;;;1.05;;
77417;SDS011;66490;51.484;0.026;2024-02-23T05:09:51;4.40;;;0.60;;
77417;SDS011;66490;51.484;0.026;2024-02-23T05:12:35;4.22;;;1.15;;
77417;SDS011;66490;51.484;0.026;2024-02-23T05:15:19;6.85;;;1.17;;
77417;SDS011;66490;51.484;0.026;2024-02-23T05:18:02;4.53;;;1.13;;
77417;SDS011;66490;51.484;0.026;2024-02-23T05:20:46;2.45;;;0.50;;
77417;SDS011;66490;51.484;0.026;2024-02-23T05:23:30;6.13;;;0.77;;
77417;SDS011;66490;51.484;0.026;2024-02-23T05:26:14;7.32;;;1.10;;
77417;SDS011;66490;51.484;0.026;2024-02-23T05:28:58;7.80;;;0.90;;
77417;SDS011;66490;51.484;0.026;2024-02-23T05:31:46;4.13;;;0.40;;
77417;SDS011;66490;51.484;0.026;2024-02-23T05:34:31;4.85;;;1.27;;
77417;SDS011;66490;51.484;0.026;2024-02-23T05:37:17;5.15;;;1.02;;
77417;SDS011;66490;51.484;0.026;2024-02-23T05:40:01;5.10;;;1.38;;
77417;SDS011;66490;51.484;0.026;2024-02-23T05:42:50;7.53;;;1.20;;
77417;SDS011;66490;51.484;0.026;2024-02-23T05:45:34;5.83;;;0.70;;
77417;SDS011;66490;51.484;0.026;2024-02-23T05:48:18;8.07;;;0.80;;
77417;SDS011;66490;51.484;0.026;2024-02-23T05:51:03;6.28;;;0.73;;
77417;SDS011;66490;51.484;0.026;2024-02-23T05:53:56;3.38;;;0.57;;
77417;SDS011;66490;51.484;0.026;2024-02-23T05:56:40;5.55;;;0.60;;
77417;SDS011;66490;51.484;0.026;2024-02-23T05:59:24;5.50;;;0.63;;
77417;SDS011;66490;51.484;0.026;2024-02-23T06:02:08;4.13;;;0.50;;
77417;SDS011;66490;51.484;0.026;2024-02-23T06:04:52;8.30;;;1.00;;
77417;SDS011;66490;51.484;0.026;2024-02-23T06:07:36;4.38;;;0.52;;
77417;SDS011;66490;51.484;0.026;2024-02-23T06:10:20;2.72;;;0.85;;
77417;SDS011;66490;51.484;0.026;2024-02-23T06:13:04;4.73;;;0.87;;
77417;SDS011;66490;51.484;0.026;2024-02-23T06:15:48;7.80;;;1.10;;
77417;SDS011;66490;51.484;0.026;2024-02-23T06:18:32;3.47;;;0.75;;
77417;SDS011;66490;51.484;0.026;2024-02-23T06:21:16;6.95;;;0.63;;
77417;SDS011;66490;51.484;0.026;2024-02-23T06:24:03;4.78;;;0.98;;
77417;SDS011;66490;51.484;0.026;2024-02-23T06:26:48;8.90;;;1.33;;
77417;SDS011;66490;51.484;0.026;2024-02-23T06:29:33;6.68;;;0.50;;
77417;SDS011;66490;51.484;0.026;2024-02-23T06:32:16;5.28;;;0.93;;
77417;SDS011;66490;51.484;0.026;2024-02-23T06:35:00;4.97;;;0.65;;
77417;SDS011;66490;51.484;0.026;2024-02-23T06:37:46;2.83;;;0.85;;
77417;SDS011;66490;51.484;0.026;2024-02-23T06:40:30;7.23;;;1.03;;
77417;SDS011;66490;51.484;0.026;2024-02-23T06:43:14;7.05;;;0.80;;
77417;SDS011;66490;51.484;0.026;2024-02-23T06:45:57;6.43;;;1.00;;
77417;SDS011;66490;51.484;0.026;2024-02-23T06:48:45;7.35;;;0.65;;
77417;SDS011;66490;51.484;0.026;2024-02-23T06:51:29;4.95;;;0.77;;
77417;SDS011;66490;51.484;0.026;2024-02-23T06:54:13;6.10;;;0.77;;
77417;SDS011;66490;51.484;0.026;2024-02-23T06:56:57;5.72;;;0.50;;
77417;SDS011;66490;51.484;0.026;2024-02-23T06:59:41;4.05;;;0.82;;
77417;SDS011;66490;51.484;0.026;2024-02-23T07:02:25;7.28;;;0.60;;
77417;SDS011;66490;51.484;0.026;2024-02-23T07:05:09;5.90;;;0.85;;
77417;SDS011;66490;51.484;0.026;2024-02-23T07:07:53;12.23;;;0.93;;
77417;SDS011;66490;51.484;0.026;2024-02-23T07:10:40;5.90;;;0.55;;
77417;SDS011;66490;51.484;0.026;2024-02-23T07:13:24;5.40;;;0.50;;
77417;SDS011;66490;51.484;0.026;2024-02-23T07:16:08;4.63;;;0.95;;
77417;SDS011;66490;51.484;0.026;2024-02-23T07:18:52;4.20;;;0.70;;
77417;SDS011;66490;51.484;0.026;2024-02-23T07:21:38;3.67;;;0.60;;
77417;SDS011;66490;51.484;0.026;2024-02-23T07:24:22;2.65;;;0.43;;
77417;SDS011;66490;51.484;0.026;2024-02-23T07:27:06;2.45;;;0.60;;
77417;SDS011;66490;51.484;0.026;2024-02-23T07:29:51;6.53;;;0.75;;
77417;SDS011;66490;51.484;0.026;2024-02-23T07:32:38;6.72;;;0.60;;
77417;SDS011;66490;51.484;0.026;2024-02-23T07:38:26;5.68;;;0.70;;
77417;SDS011;66490;51.484;0.026;2024-02-23T07:41:11;6.35;;;0.80;;
77417;SDS011;66490;51.484;0.026;2024-02-23T07:43:56;5.18;;;0.80;;
77417;SDS011;66490;51.484;0.026;2024-02-23T07:46:41;3.95;;;0.88;;
77417;SDS011;66490;51.484;0.026;2024-02-23T07:49:25;5.80;;;1.10;;
77417;SDS011;66490;51.484;0.026;2024-02-23T07:52:19;9.73;;;0.80;;
77417;SDS011;66490;51.484;0.026;2024-02-23T07:55:03;8.10;;;1.55;;
77417;SDS011;66490;51.484;0.026;2024-02-23T07:57:53;10.07;;;1.33;;
77417;SDS011;66490;51.484;0.026;2024-02-23T08:00:45;6.88;;;1.15;;
77417;SDS011;66490;51.484;0.026;2024-02-23T08:03:30;6.83;;;1.13;;
77417;SDS011;66490;51.484;0.026;2024-02-23T08:06:24;11.05;;;1.27;;
77417;SDS011;66490;51.484;0.026;2024-02-23T08:09:15;7.38;;;0.98;;
77417;SDS011;66490;51.484;0.026;2024-02-23T08:12:04;6.93;;;1.10;;
77417;SDS011;66490;51.484;0.026;2024-02-23T08:18:14;6.50;;;1.10;;
77417;SDS011;66490;51.484;0.026;2024-02-23T08:21:11;5.13;;;0.77;;
77417;SDS011;66490;51.484;0.026;2024-02-23T08:27:11;8.75;;;1.17;;
77417;SDS011;66490;51.484;0.026;2024-02-23T08:30:08;5.60;;;1.10;;
77417;SDS011;66490;51.484;0.026;2024-02-23T08:32:55;5.10;;;1.20;;
77417;SDS011;66490;51.484;0.026;2024-02-23T08:35:49;8.63;;;0.90;;
77417;SDS011;66490;51.484;0.026;2024-02-23T08:38:45;5.47;;;0.70;;
77417;SDS011;66490;51.484;0.026;2024-02-23T08:41:41;5.63;;;1.00;;
77417;SDS011;66490;51.484;0.026;2024-02-23T08:44:27;4.53;;;1.13;;
77417;SDS011;66490;51.484;0.026;2024-02-23T08:47:13;9.20;;;1.00;;
77417;SDS011;66490;51.484;0.026;2024-02-23T08:50:05;6.65;;;0.93;;
77417;SDS011;66490;51.484;0.026;2024-02-23T08:56:15;6.55;;;0.98;;
77417;SDS011;66490;51.484;0.026;2024-02-23T08:59:05;3.72;;;1.45;;
77417;SDS011;66490;51.484;0.026;2024-02-23T09:08:10;9.00;;;1.52;;
77417;SDS011;66490;51.484;0.026;2024-02-23T09:11:03;9.68;;;1.30;;
77417;SDS011;66490;51.484;0.026;2024-02-23T09:14:31;8.15;;;1.35;;
77417;SDS011;66490;51.484;0.026;2024-02-23T09:21:14;7.40;;;1.05;;
77417;SDS011;66490;51.484;0.026;2024-02-23T09:24:03;7.30;;;1.40;;
77417;SDS011;66490;51.484;0.026;2024-02-23T09:33:49;3.47;;;0.83;;
77417;SDS011;66490;51.484;0.026;2024-02-23T09:40:30;5.45;;;0.82;;
77417;SDS011;66490;51.484;0.026;2024-02-23T09:47:02;7.55;;;1.60;;
77417;SDS011;66490;51.484;0.026;2024-02-23T09:49:52;7.73;;;1.43;;
77417;SDS011;66490;51.484;0.026;2024-02-23T09:55:53;7.30;;;1.48;;
77417;SDS011;66490;51.484;0.026;2024-02-23T09:59:30;8.43;;;0.95;;
77417;SDS011;66490;51.484;0.026;2024-02-23T10:02:20;10.82;;;1.25;;
77417;SDS011;66490;51.484;0.026;2024-02-23T10:08:40;11.45;;;1.50;;
77417;SDS011;66490;51.484;0.026;2024-02-23T10:11:36;3.83;;;0.90;;
77417;SDS011;66490;51.484;0.026;2024-02-23T10:17:46;8.95;;;1.58;;
77417;SDS011;66490;51.484;0.026;2024-02-23T10:33:56;5.63;;;1.20;;
77417;SDS011;66490;51.484;0.026;2024-02-23T10:36:43;6.20;;;1.03;;
77417;SDS011;66490;51.484;0.026;2024-02-23T10:39:40;6.35;;;1.40;;
77417;SDS011;66490;51.484;0.026;2024-02-23T10:46:17;7.47;;;1.15;;
77417;SDS011;66490;51.484;0.026;2024-02-23T10:49:50;8.77;;;0.95;;
77417;SDS011;66490;51.484;0.026;2024-02-23T10:55:58;7.15;;;0.80;;
77417;SDS011;66490;51.484;0.026;2024-02-23T11:02:19;7.72;;;0.80;;
77417;SDS011;66490;51.484;0.026;2024-02-23T11:08:32;5.80;;;1.70;;
77417;SDS011;66490;51.484;0.026;2024-02-23T11:18:44;5.68;;;1.10;;
77417;SDS011;66490;51.484;0.026;2024-02-23T11:24:15;8.53;;;0.93;;
77417;SDS011;66490;51.484;0.026;2024-02-23T11:34:35;4.78;;;0.70;;
77417;SDS011;66490;51.484;0.026;2024-02-23T11:41:02;4.90;;;0.90;;
77417;SDS011;66490;51.484;0.026;2024-02-23T11:44:00;9.70;;;1.55;;
77417;SDS011;66490;51.484;0.026;2024-02-23T11:46:59;7.60;;;1.13;;
77417;SDS011;66490;51.484;0.026;2024-02-23T11:50:34;4.78;;;1.00;;
77417;SDS011;66490;51.484;0.026;2024-02-23T11:53:53;6.57;;;1.30;;
77417;SDS011;66490;51.484;0.026;2024-02-23T11:57:26;3.83;;;0.77;;
77417;SDS011;66490;51.484;0.026;2024-02-23T12:00:16;5.97;;;0.88;;
77417;SDS011;66490;51.484;0.026;2024-02-23T12:03:08;7.00;;;1.20;;
77417;SDS011;66490;51.484;0.026;2024-02-23T12:09:32;12.38;;;1.90;;
77417;SDS011;66490;51.484;0.026;2024-02-23T12:12:16;6.70;;;1.03;;
77417;SDS011;66490;51.484;0.026;2024-02-23T12:15:01;4.40;;;0.82;;
77417;SDS011;66490;51.484;0.026;2024-02-23T12:17:51;4.38;;;0.90;;
77417;SDS011;66490;51.484;0.026;2024-02-23T12:20:39;5.55;;;0.77;;
77417;SDS011;66490;51.484;0.026;2024-02-23T12:23:23;5.47;;;0.93;;
77417;SDS011;66490;51.484;0.026;2024-02-23T12:26:07;8.87;;;0.83;;
77417;SDS011;66490;51.484;0.026;2024-02-23T12:28:52;6.05;;;0.52;;
77417;SDS011;66490;51.484;0.026;2024-02-23T12:31:37;4.32;;;0.80;;
77417;SDS011;66490;51.484;0.026;2024-02-23T12:34:21;6.07;;;0.93;;
77417;SDS011;66490;51.484;0.026;2024-02-23T12:37:07;7.28;;;1.50;;
77417;SDS011;66490;51.484;0.026;2024-02-23T12:39:52;5.47;;;0.90;;
77417;SDS011;66490;51.484;0.026;2024-02-23T12:42:36;6.47;;;0.85;;
77417;SDS011;66490;51.484;0.026;2024-02-23T12:45:29;4.07;;;1.00;;
77417;SDS011;66490;51.484;0.026;2024-02-23T12:48:16;3.38;;;1.02;;
77417;SDS011;66490;51.484;0.026;2024-02-23T12:51:02;9.10;;;1.67;;
77417;SDS011;66490;51.484;0.026;2024-02-23T12:53:49;4.63;;;0.87;;
77417;SDS011;66490;51.484;0.026;2024-02-23T12:56:38;6.35;;;0.88;;
77417;SDS011;66490;51.484;0.026;2024-02-23T12:59:35;7.65;;;1.20;;
77417;SDS011;66490;51.484;0.026;2024-02-23T13:25:07;3.83;;;1.17;;
77417;SDS011;66490;51.484;0.026;2024-02-23T13:28:30;2.40;;;0.50;;
77417;SDS011;66490;51.484;0.026;2024-02-23T13:31:32;6.53;;;0.95;;
77417;SDS011;66490;51.484;0.026;2024-02-23T13:34:39;6.43;;;0.63;;
77417;SDS011;66490;51.484;0.026;2024-02-23T13:49:44;4.28;;;0.93;;
77417;SDS011;66490;51.484;0.026;2024-02-23T14:01:15;3.25;;;0.60;;
77417;SDS011;66490;51.484;0.026;2024-02-23T14:04:09;3.30;;;0.60;;
77417;SDS011;66490;51.484;0.026;2024-02-23T14:10:10;5.07;;;1.03;;
77417;SDS011;66490;51.484;0.026;2024-02-23T14:13:07;7.78;;;0.90;;
77417;SDS011;66490;51.484;0.026;2024-02-23T14:49:01;9.43;;;2.22;;
77417;SDS011;66490;51.484;0.026;2024-02-23T14:59:16;10.47;;;1.67;;
77417;SDS011;66490;51.484;0.026;2024-02-23T15:03:19;7.63;;;1.42;;
77417;SDS011;66490;51.484;0.026;2024-02-23T15:06:32;9.82;;;1.58;;
77417;SDS011;66490;51.484;0.026;2024-02-23T15:16:57;8.93;;;0.60;;
77417;SDS011;66490;51.484;0.026;2024-02-23T15:28:15;2.67;;;0.52;;
77417;SDS011;66490;51.484;0.026;2024-02-23T15:31:03;5.28;;;1.10;;
77417;SDS011;66490;51.484;0.026;2024-02-23T15:48:25;2.63;;;0.95;;
77417;SDS011;66490;51.484;0.026;2024-02-23T15:54:41;4.55;;;0.77;;
77417;SDS011;66490;51.484;0.026;2024-02-23T15:57:37;2.83;;;0.95;;
77417;SDS011;66490;51.484;0.026;2024-02-23T16:03:31;5.95;;;0.88;;
77417;SDS011;66490;51.484;0.026;2024-02-23T16:06:50;2.33;;;0.67;;
77417;SDS011;66490;51.484;0.026;2024-02-23T16:10:08;2.80;;;0.73;;
77417;SDS011;66490;51.484;0.026;2024-02-23T16:13:10;4.15;;;0.90;;
77417;SDS011;66490;51.484;0.026;2024-02-23T16:15:58;3.20;;;0.77;;
77417;SDS011;66490;51.484;0.026;2024-02-23T16:22:28;5.80;;;1.30;;
77417;SDS011;66490;51.484;0.026;2024-02-23T16:25:36;3.40;;;1.00;;
77417;SDS011;66490;51.484;0.026;2024-02-23T16:28:33;4.85;;;1.17;;
77417;SDS011;66490;51.484;0.026;2024-02-23T16:31:44;2.95;;;0.90;;
77417;SDS011;66490;51.484;0.026;2024-02-23T16:34:33;2.25;;;0.73;;
77417;SDS011;66490;51.484;0.026;2024-02-23T16:37:20;3.20;;;0.50;;
77417;SDS011;66490;51.484;0.026;2024-02-23T16:40:08;3.42;;;0.85;;
77417;SDS011;66490;51.484;0.026;2024-02-23T16:43:03;3.83;;;1.00;;
77417;SDS011;66490;51.484;0.026;2024-02-23T16:45:48;2.75;;;0.70;;
77417;SDS011;66490;51.484;0.026;2024-02-23T16:48:32;4.95;;;1.08;;
77417;SDS011;66490;51.484;0.026;2024-02-23T16:51:20;5.50;;;0.57;;
77417;SDS011;66490;51.484;0.026;2024-02-23T16:54:10;3.97;;;0.95;;
77417;SDS011;66490;51.484;0.026;2024-02-23T16:57:11;4.47;;;1.08;;
77417;SDS011;66490;51.484;0.026;2024-02-23T17:00:23;5.78;;;0.82;;
77417;SDS011;66490;51.484;0.026;2024-02-23T17:03:10;2.85;;;0.90;;
77417;SDS011;66490;51.484;0.026;2024-02-23T17:05:56;2.57;;;0.70;;
77417;SDS011;66490;51.484;0.026;2024-02-23T17:08:48;5.18;;;1.25;;
77417;SDS011;66490;51.484;0.026;2024-02-23T17:14:44;4.53;;;1.17;;
77417;SDS011;66490;51.484;0.026;2024-02-23T17:17:38;3.15;;;1.30;;
77417;SDS011;66490;51.484;0.026;2024-02-23T17:20:25;2.27;;;0.80;;
77417;SDS011;66490;51.484;0.026;2024-02-23T17:23:10;3.20;;;0.90;;
77417;SDS011;66490;51.484;0.026;2024-02-23T17:25:54;1.70;;;1.20;;
77417;SDS011;66490;51.484;0.026;2024-02-23T17:28:54;3.13;;;0.77;;
77417;SDS011;66490;51.484;0.026;2024-02-23T17:31:59;3.38;;;1.40;;
77417;SDS011;66490;51.484;0.026;2024-02-23T17:34:57;2.83;;;0.83;;
77417;SDS011;66490;51.484;0.026;2024-02-23T17:37:47;5.57;;;1.35;;
77417;SDS011;66490;51.484;0.026;2024-02-23T17:40:45;3.08;;;1.30;;
77417;SDS011;66490;51.484;0.026;2024-02-23T17:43:34;4.38;;;1.15;;
77417;SDS011;66490;51.484;0.026;2024-02-23T17:46:18;4.07;;;1.58;;
77417;SDS011;66490;51.484;0.026;2024-02-23T17:49:04;3.27;;;1.27;;
77417;SDS011;66490;51.484;0.026;2024-02-23T17:51:56;3.38;;;1.17;;
77417;SDS011;66490;51.484;0.026;2024-02-23T17:54:55;4.72;;;1.70;;
77417;SDS011;66490;51.484;0.026;2024-02-23T17:57:47;4.20;;;1.20;;
77417;SDS011;66490;51.484;0.026;2024-02-23T18:00:38;4.05;;;1.90;;
77417;SDS011;66490;51.484;0.026;2024-02-23T18:03:30;5.77;;;2.07;;
77417;SDS011;66490;51.484;0.026;2024-02-23T18:06:17;5.65;;;1.42;;
77417;SDS011;66490;51.484;0.026;2024-02-23T18:09:03;6.30;;;1.70;;
77417;SDS011;66490;51.484;0.026;2024-02-23T18:12:02;4.97;;;1.73;;
77417;SDS011;66490;51.484;0.026;2024-02-23T18:14:59;3.78;;;1.88;;
77417;SDS011;66490;51.484;0.026;2024-02-23T18:17:47;3.90;;;1.43;;
77417;SDS011;66490;51.484;0.026;2024-02-23T18:20:46;4.82;;;1.85;;
77417;SDS011;66490;51.484;0.026;2024-02-23T18:23:38;4.65;;;1.75;;
77417;SDS011;66490;51.484;0.026;2024-02-23T18:26:42;3.88;;;1.83;;
77417;SDS011;66490;51.484;0.026;2024-02-23T18:29:26;4.38;;;1.60;;
77417;SDS011;66490;51.484;0.026;2024-02-23T18:32:19;6.97;;;2.07;;
77417;SDS011;66490;51.484;0.026;2024-02-23T18:35:25;4.60;;;1.85;;
77417;SDS011;66490;51.484;0.026;2024-02-23T18:41:45;5.85;;;2.30;;
77417;SDS011;66490;51.484;0.026;2024-02-23T18:48:22;8.17;;;2.77;;
77417;SDS011;66490;51.484;0.026;2024-02-23T19:01:24;8.88;;;4.25;;
77417;SDS011;66490;51.484;0.026;2024-02-23T19:04:19;11.13;;;4.23;;
77417;SDS011;66490;51.484;0.026;2024-02-23T19:07:08;10.40;;;5.47;;
77417;SDS011;66490;51.484;0.026;2024-02-23T19:10:26;9.57;;;4.80;;
77417;SDS011;66490;51.484;0.026;2024-02-23T19:13:20;8.02;;;4.47;;
77417;SDS011;66490;51.484;0.026;2024-02-23T19:16:13;8.05;;;4.75;;
77417;SDS011;66490;51.484;0.026;2024-02-23T19:22:10;12.70;;;5.45;;
77417;SDS011;66490;51.484;0.026;2024-02-23T19:28:22;11.73;;;5.13;;
77417;SDS011;66490;51.484;0.026;2024-02-23T19:31:12;11.40;;;6.30;;
77417;SDS011;66490;51.484;0.026;2024-02-23T19:34:05;11.40;;;5.53;;
77417;SDS011;66490;51.484;0.026;2024-02-23T19:37:00;14.20;;;7.22;;
77417;SDS011;66490;51.484;0.026;2024-02-23T19:39:58;11.20;;;6.28;;
77417;SDS011;66490;51.484;0.026;2024-02-23T19:46:06;10.50;;;5.38;;
77417;SDS011;66490;51.484;0.026;2024-02-23T19:48:53;8.83;;;4.37;;
77417;SDS011;66490;51.484;0.026;2024-02-23T20:01:47;6.90;;;3.70;;
77417;SDS011;66490;51.484;0.026;2024-02-23T20:04:41;6.97;;;2.77;;
77417;SDS011;66490;51.484;0.026;2024-02-23T20:07:49;7.63;;;3.25;;
77417;SDS011;66490;51.484;0.026;2024-02-23T20:10:54;9.32;;;3.90;;
77417;SDS011;66490;51.484;0.026;2024-02-23T20:14:07;8.45;;;3.95;;
77417;SDS011;66490;51.484;0.026;2024-02-23T20:17:22;15.25;;;6.45;;
77417;SDS011;66490;51.484;0.026;2024-02-23T20:20:19;16.50;;;7.53;;
77417;SDS011;66490;51.484;0.026;2024-02-23T20:23:09;13.32;;;6.22;;
77417;SDS011;66490;51.484;0.026;2024-02-23T20:26:00;15.60;;;7.57;;
77417;SDS011;66490;51.484;0.026;2024-02-23T20:32:23;13.80;;;7.45;;
77417;SDS011;66490;51.484;0.026;2024-02-23T20:35:20;10.73;;;5.83;;
77417;SDS011;66490;51.484;0.026;2024-02-23T20:38:32;10.82;;;5.72;;
77417;SDS011;66490;51.484;0.026;2024-02-23T20:41:19;14.30;;;5.18;;
77417;SDS011;66490;51.484;0.026;2024-02-23T20:47:49;13.90;;;7.15;;
77417;SDS011;66490;51.484;0.026;2024-02-23T20:54:06;13.57;;;6.68;;
77417;SDS011;66490;51.484;0.026;2024-02-23T23:14:52;5.72;;;2.58;;
77417;SDS011;66490;51.484;0.026;2024-02-23T23:17:57;8.93;;;2.40;;
77417;SDS011;66490;51.484;0.026;2024-02-23T23:21:07;6.88;;;2.60;;
77417;SDS011;66490;51.484;0.026;2024-02-23T23:23:54;6.88;;;2.75;;
77417;SDS011;66490;51.484;0.026;2024-02-23T23:26:43;15.05;;;3.10;;
77417;SDS011;66490;51.484;0.026;2024-02-23T23:29:31;10.15;;;4.40;;
77417;SDS011;66490;51.484;0.026;2024-02-23T23:32:27;7.20;;;2.87;;
77417;SDS011;66490;51.484;0.026;2024-02-23T23:38:28;9.25;;;2.92;;
77417;SDS011;66490;51.484;0.026;2024-02-23T23:41:13;9.35;;;3.22;;
77417;SDS011;66490;51.484;0.026;2024-02-23T23:43:58;7.95;;;3.83;;
77417;SDS011;66490;51.484;0.026;2024-02-23T23:46:49;10.20;;;3.50;;
77417;SDS011;66490;51.484;0.026;2024-02-23T23:56:10;6.90;;;3.28;;
77417;SDS011;66490;51.484;0.026;2024-02-23T23:59:00;8.35;;;2.85;;
